createdAt,value
2018-05-28T00:00:30.807Z,19.54
2018-05-28T00:01:30.827Z,19.64
2018-05-28T00:02:30.852Z,19.73
2018-05-28T00:03:30.872Z,19.89
2018-05-28T00:04:30.900Z,20.03
2018-05-28T00:05:30.919Z,20.14
2018-05-28T00:06:30.949Z,20.11
2018-05-28T00:07:30.962Z,20.11
2018-05-28T00:08:30.983Z,20.02
2018-05-28T00:09:31.003Z,19.92
2018-05-28T00:10:31.026Z,19.88
2018-05-28T00:11:31.053Z,19.81
2018-05-28T00:12:31.069Z,19.91
2018-05-28T00:13:31.093Z,19.74
2018-05-28T00:14:31.122Z,19.70
2018-05-28T00:15:31.132Z,19.91
2018-05-28T00:16:31.152Z,19.91
2018-05-28T00:17:31.178Z,20.11
2018-05-28T00:18:31.199Z,20.24
2018-05-28T00:19:31.219Z,20.18
2018-05-28T00:20:31.247Z,20.25
2018-05-28T00:21:31.268Z,20.03
2018-05-28T00:22:31.289Z,20.00
2018-05-28T00:23:31.312Z,19.88
2018-05-28T00:24:31.328Z,19.86
2018-05-28T00:25:31.351Z,19.79
2018-05-28T00:26:31.373Z,19.86
2018-05-28T00:27:31.394Z,20.11
2018-05-28T00:28:31.421Z,20.13
2018-05-28T00:29:31.453Z,19.96
2018-05-28T00:30:31.456Z,19.69
2018-05-28T00:31:31.478Z,19.63
2018-05-28T00:32:31.503Z,19.77
2018-05-28T00:33:31.538Z,19.73
2018-05-28T00:34:31.546Z,19.82
2018-05-28T00:35:31.564Z,19.92
2018-05-28T00:36:31.595Z,20.09
2018-05-28T00:37:31.611Z,20.25
2018-05-28T00:38:31.635Z,20.31
2018-05-28T00:39:31.660Z,20.40
2018-05-28T00:40:31.678Z,20.43
2018-05-28T00:41:31.702Z,20.41
2018-05-28T00:42:31.718Z,20.52
2018-05-28T00:43:31.740Z,20.44
2018-05-28T00:44:31.761Z,20.13
2018-05-28T00:45:31.802Z,20.19
2018-05-28T00:46:31.803Z,20.25
2018-05-28T00:47:31.824Z,20.25
2018-05-28T00:48:31.863Z,20.34
2018-05-28T00:49:31.868Z,20.29
2018-05-28T00:50:31.894Z,20.31
2018-05-28T00:51:31.913Z,20.31
2018-05-28T00:52:31.936Z,19.94
2018-05-28T00:53:31.978Z,19.71
2018-05-28T00:54:31.980Z,19.86
2018-05-28T00:55:32.006Z,19.69
2018-05-28T00:56:32.021Z,19.47
2018-05-28T00:57:32.044Z,19.47
2018-05-28T00:58:32.067Z,19.26
2018-05-28T00:59:32.106Z,19.63
2018-05-28T01:00:32.119Z,19.82
2018-05-28T01:01:32.150Z,20.03
2018-05-28T01:02:32.157Z,19.96
2018-05-28T01:03:32.181Z,20.04
2018-05-28T01:04:32.211Z,20.14
2018-05-28T01:05:32.219Z,19.91
2018-05-28T01:06:32.249Z,20.03
2018-05-28T01:07:32.263Z,20.10
2018-05-28T01:08:32.287Z,20.14
2018-05-28T01:09:32.305Z,20.13
2018-05-28T01:10:32.327Z,20.03
2018-05-28T01:11:32.351Z,19.95
2018-05-28T01:12:32.369Z,19.86
2018-05-28T01:13:32.397Z,19.69
2018-05-28T01:14:32.414Z,19.62
2018-05-28T01:15:32.439Z,19.48
2018-05-28T01:16:32.454Z,19.54
2018-05-28T01:17:32.487Z,19.59
2018-05-28T01:18:32.505Z,19.49
2018-05-28T01:19:32.537Z,19.64
2018-05-28T01:20:32.545Z,19.73
2018-05-28T01:21:32.564Z,19.74
2018-05-28T01:22:32.597Z,19.82
2018-05-28T01:23:32.612Z,19.88
2018-05-28T01:24:32.626Z,19.92
2018-05-28T01:25:32.654Z,19.95
2018-05-28T01:26:32.673Z,19.92
2018-05-28T01:27:32.695Z,20.03
2018-05-28T01:28:32.720Z,19.99
2018-05-28T01:29:32.740Z,19.89
2018-05-28T01:30:32.761Z,19.79
2018-05-28T01:31:32.789Z,19.58
2018-05-28T01:32:32.809Z,19.51
2018-05-28T01:33:32.825Z,19.48
2018-05-28T01:34:32.847Z,19.48
2018-05-28T01:35:32.865Z,19.54
2018-05-28T01:36:32.885Z,19.36
2018-05-28T01:37:32.905Z,19.00
2018-05-28T01:38:32.933Z,18.95
2018-05-28T01:39:32.965Z,18.92
2018-05-28T01:40:33.007Z,18.88
2018-05-28T01:41:33.000Z,18.83
2018-05-28T01:42:33.014Z,19.09
2018-05-28T01:43:33.033Z,19.30
2018-05-28T01:44:33.060Z,19.48
2018-05-28T01:45:33.079Z,19.48
2018-05-28T01:46:33.099Z,19.63
2018-05-28T01:47:33.126Z,19.54
2018-05-28T01:48:33.147Z,19.56
2018-05-28T01:49:33.165Z,19.51
2018-05-28T01:50:33.185Z,19.48
2018-05-28T01:51:33.210Z,19.58
2018-05-28T01:52:33.231Z,19.74
2018-05-28T01:53:33.262Z,19.66
2018-05-28T01:54:33.269Z,19.73
2018-05-28T01:55:33.308Z,19.70
2018-05-28T01:56:33.326Z,19.70
2018-05-28T01:57:33.346Z,19.64
2018-05-28T01:58:33.358Z,19.76
2018-05-28T01:59:33.379Z,19.71
2018-05-28T02:00:33.402Z,19.66
2018-05-28T02:01:33.421Z,19.77
2018-05-28T02:02:33.440Z,19.73
2018-05-28T02:03:33.470Z,19.45
2018-05-28T02:04:33.490Z,19.14
2018-05-28T02:05:33.506Z,18.89
2018-05-28T02:06:33.532Z,18.66
2018-05-28T02:07:33.551Z,18.75
2018-05-28T02:08:33.573Z,18.81
2018-05-28T02:09:33.596Z,18.93
2018-05-28T02:10:33.615Z,19.04
2018-05-28T02:11:33.634Z,19.08
2018-05-28T02:12:33.657Z,19.21
2018-05-28T02:13:33.680Z,19.22
2018-05-28T02:14:33.698Z,19.29
2018-05-28T02:15:33.715Z,19.29
2018-05-28T02:16:33.742Z,19.29
2018-05-28T02:17:33.767Z,19.37
2018-05-28T02:18:33.792Z,19.29
2018-05-28T02:19:33.802Z,19.27
2018-05-28T02:20:33.823Z,19.27
2018-05-28T02:21:33.847Z,19.26
2018-05-28T02:22:33.871Z,19.30
2018-05-28T02:23:33.889Z,19.30
2018-05-28T02:24:33.945Z,19.29
2018-05-28T02:25:33.934Z,19.37
2018-05-28T02:26:33.953Z,19.18
2018-05-28T02:27:33.975Z,19.14
2018-05-28T02:28:34.001Z,19.12
2018-05-28T02:29:34.015Z,18.88
2018-05-28T02:30:34.035Z,18.81
2018-05-28T02:31:34.059Z,18.70
2018-05-28T02:32:34.081Z,18.34
2018-05-28T02:33:34.101Z,17.97
2018-05-28T02:34:34.125Z,17.85
2018-05-28T02:35:34.148Z,17.78
2018-05-28T02:36:34.175Z,17.67
2018-05-28T02:37:34.192Z,17.70
2018-05-28T02:38:34.210Z,17.85
2018-05-28T02:39:34.229Z,17.68
2018-05-28T02:40:34.252Z,17.97
2018-05-28T02:41:34.278Z,18.15
2018-05-28T02:42:34.295Z,18.41
2018-05-28T02:43:34.314Z,18.63
2018-05-28T02:44:34.341Z,18.63
2018-05-28T02:45:34.357Z,18.55
2018-05-28T02:46:34.381Z,18.37
2018-05-28T02:47:34.398Z,18.13
2018-05-28T02:48:34.419Z,18.26
2018-05-28T02:49:34.438Z,18.29
2018-05-28T02:50:34.462Z,18.28
2018-05-28T02:51:34.482Z,18.26
2018-05-28T02:52:34.503Z,18.28
2018-05-28T02:53:34.522Z,18.28
2018-05-28T02:54:34.548Z,18.29
2018-05-28T02:55:34.566Z,18.28
2018-05-28T02:56:34.583Z,18.34
2018-05-28T02:57:34.607Z,18.47
2018-05-28T02:58:34.641Z,18.49
2018-05-28T02:59:34.652Z,18.58
2018-05-28T03:00:34.686Z,18.59
2018-05-28T03:01:34.695Z,18.58
2018-05-28T03:02:34.716Z,18.62
2018-05-28T03:03:34.731Z,18.62
2018-05-28T03:04:34.763Z,18.45
2018-05-28T03:05:34.776Z,18.45
2018-05-28T03:06:34.799Z,18.71
2018-05-28T03:07:34.817Z,18.63
2018-05-28T03:08:34.835Z,18.62
2018-05-28T03:09:34.856Z,18.62
2018-05-28T03:10:34.884Z,18.65
2018-05-28T03:11:34.897Z,18.63
2018-05-28T03:12:34.920Z,18.59
2018-05-28T03:13:34.942Z,18.65
2018-05-28T03:14:34.970Z,18.62
2018-05-28T03:15:34.982Z,18.65
2018-05-28T03:16:35.009Z,18.33
2018-05-28T03:17:35.049Z,18.28
2018-05-28T03:18:35.045Z,18.15
2018-05-28T03:19:35.077Z,18.05
2018-05-28T03:20:35.095Z,17.83
2018-05-28T03:21:35.109Z,17.82
2018-05-28T03:22:35.138Z,17.63
2018-05-28T03:23:35.161Z,17.42
2018-05-28T03:24:35.177Z,17.41
2018-05-28T03:25:35.194Z,17.44
2018-05-28T03:26:35.220Z,17.70
2018-05-28T03:27:35.236Z,17.98
2018-05-28T03:28:35.263Z,18.08
2018-05-28T03:29:35.282Z,18.20
2018-05-28T03:30:35.302Z,18.26
2018-05-28T03:31:35.324Z,18.31
2018-05-28T03:32:35.342Z,18.33
2018-05-28T03:33:35.358Z,18.37
2018-05-28T03:34:35.380Z,18.53
2018-05-28T03:35:35.406Z,18.50
2018-05-28T03:36:35.429Z,18.43
2018-05-28T03:37:35.446Z,18.58
2018-05-28T03:38:35.472Z,18.49
2018-05-28T03:39:35.488Z,18.31
2018-05-28T03:40:35.510Z,18.04
2018-05-28T03:41:35.548Z,17.71
2018-05-28T03:42:35.549Z,17.56
2018-05-28T03:43:35.584Z,17.54
2018-05-28T03:44:35.592Z,17.39
2018-05-28T03:45:35.613Z,17.83
2018-05-28T03:46:35.632Z,18.03
2018-05-28T03:47:35.655Z,18.13
2018-05-28T03:48:35.685Z,17.92
2018-05-28T03:49:35.699Z,17.54
2018-05-28T03:50:35.718Z,17.68
2018-05-28T03:51:35.742Z,17.82
2018-05-28T03:52:35.759Z,17.86
2018-05-28T03:53:35.800Z,18.00
2018-05-28T03:54:35.806Z,18.29
2018-05-28T03:55:35.822Z,18.60
2018-05-28T03:56:35.845Z,18.78
2018-05-28T03:57:35.866Z,18.89
2018-05-28T03:58:35.888Z,18.89
2018-05-28T03:59:35.919Z,19.00
2018-05-28T04:00:35.929Z,19.08
2018-05-28T04:01:35.951Z,19.11
2018-05-28T04:02:35.971Z,19.02
2018-05-28T04:03:35.993Z,19.15
2018-05-28T04:04:36.021Z,19.14
2018-05-28T04:05:36.040Z,18.98
2018-05-28T04:06:36.054Z,18.98
2018-05-28T04:07:36.084Z,18.98
2018-05-28T04:08:36.099Z,18.88
2018-05-28T04:09:36.136Z,19.02
2018-05-28T04:10:36.173Z,18.89
2018-05-28T04:11:36.176Z,18.70
2018-05-28T04:12:36.191Z,18.70
2018-05-28T04:13:36.207Z,18.90
2018-05-28T04:14:36.231Z,19.18
2018-05-28T04:15:36.259Z,19.52
2018-05-28T04:16:36.270Z,19.54
2018-05-28T04:17:36.292Z,19.73
2018-05-28T04:18:36.316Z,19.62
2018-05-28T04:19:36.350Z,19.70
2018-05-28T04:20:36.365Z,19.73
2018-05-28T04:21:36.387Z,19.88
2018-05-28T04:22:36.406Z,19.70
2018-05-28T04:23:36.422Z,19.85
2018-05-28T04:24:36.446Z,20.03
2018-05-28T04:25:36.475Z,19.91
2018-05-28T04:26:36.493Z,20.03
2018-05-28T04:27:36.508Z,20.00
2018-05-28T04:28:36.532Z,19.79
2018-05-28T04:29:36.555Z,19.54
2018-05-28T04:30:36.572Z,19.27
2018-05-28T04:31:36.614Z,19.15
2018-05-28T04:32:36.619Z,19.18
2018-05-28T04:33:36.642Z,19.12
2018-05-28T04:34:36.682Z,19.19
2018-05-28T04:35:36.699Z,19.29
2018-05-28T04:36:36.720Z,19.30
2018-05-28T04:37:36.737Z,19.19
2018-05-28T04:38:36.773Z,19.12
2018-05-28T04:39:36.828Z,19.16
2018-05-28T04:40:36.792Z,19.45
2018-05-28T04:41:36.836Z,19.26
2018-05-28T04:42:36.839Z,19.26
2018-05-28T04:43:36.867Z,19.24
2018-05-28T04:44:36.879Z,19.26
2018-05-28T04:45:36.903Z,19.39
2018-05-28T04:46:36.924Z,19.39
2018-05-28T04:47:36.974Z,19.63
2018-05-28T04:48:37.012Z,19.76
2018-05-28T04:49:36.990Z,20.04
2018-05-28T04:50:37.013Z,20.40
2018-05-28T04:51:37.046Z,20.78
2018-05-28T04:52:37.072Z,21.09
2018-05-28T04:53:37.094Z,21.40
2018-05-28T04:54:37.117Z,21.83
2018-05-28T04:55:37.164Z,22.13
2018-05-28T04:56:37.159Z,22.50
2018-05-28T04:57:37.195Z,22.73
2018-05-28T04:58:37.190Z,22.85
2018-05-28T04:59:37.224Z,23.13
2018-05-28T05:00:37.252Z,23.17
2018-05-28T05:01:37.260Z,23.56
2018-05-28T05:02:37.287Z,23.80
2018-05-28T05:03:37.305Z,23.77
2018-05-28T05:04:37.337Z,23.81
2018-05-28T05:05:37.368Z,23.77
2018-05-28T05:06:37.375Z,23.56
2018-05-28T05:07:37.412Z,23.41
2018-05-28T05:08:37.436Z,23.51
2018-05-28T05:09:37.462Z,22.85
2018-05-28T05:10:37.473Z,22.83
2018-05-28T05:11:37.500Z,22.26
2018-05-28T05:12:37.523Z,22.11
2018-05-28T05:13:37.559Z,22.38
2018-05-28T05:14:37.578Z,22.25
2018-05-28T05:15:37.614Z,22.29
2018-05-28T05:16:37.618Z,22.39
2018-05-28T05:17:37.648Z,22.48
2018-05-28T05:18:37.695Z,22.28
2018-05-28T05:19:37.688Z,22.00
2018-05-28T05:20:37.724Z,22.15
2018-05-28T05:21:37.755Z,22.51
2018-05-28T05:22:37.765Z,23.05
2018-05-28T05:23:37.785Z,22.98
2018-05-28T05:24:37.805Z,23.09
2018-05-28T05:25:37.831Z,23.17
2018-05-28T05:26:37.857Z,23.00
2018-05-28T05:27:37.892Z,23.02
2018-05-28T05:28:37.917Z,23.08
2018-05-28T05:29:37.949Z,23.05
2018-05-28T05:30:37.954Z,23.09
2018-05-28T05:31:37.992Z,23.36
2018-05-28T05:32:37.996Z,23.81
2018-05-28T05:33:38.038Z,23.88
2018-05-28T05:34:38.058Z,23.80
2018-05-28T05:35:38.071Z,23.83
2018-05-28T05:36:38.119Z,23.48
2018-05-28T05:37:38.121Z,23.23
2018-05-28T05:38:38.160Z,23.27
2018-05-28T05:39:38.175Z,23.58
2018-05-28T05:40:38.186Z,23.47
2018-05-28T05:41:38.210Z,23.84
2018-05-28T05:42:38.242Z,23.56
2018-05-28T05:43:38.261Z,23.76
2018-05-28T05:44:38.304Z,24.16
2018-05-28T05:45:38.329Z,24.61
2018-05-28T05:46:38.337Z,25.01
2018-05-28T05:47:38.365Z,25.22
2018-05-28T05:48:38.403Z,25.47
2018-05-28T05:49:38.425Z,25.17
2018-05-28T05:50:38.442Z,24.53
2018-05-28T05:51:38.480Z,23.86
2018-05-28T05:52:38.485Z,24.06
2018-05-28T05:53:38.505Z,24.58
2018-05-28T05:54:38.533Z,24.47
2018-05-28T05:55:38.552Z,24.40
2018-05-28T05:56:38.577Z,23.77
2018-05-28T05:57:38.614Z,23.55
2018-05-28T05:58:38.633Z,23.43
2018-05-28T05:59:38.657Z,23.61
2018-05-28T06:00:38.698Z,23.80
2018-05-28T06:01:38.707Z,23.91
2018-05-28T06:02:38.731Z,24.02
2018-05-28T06:03:38.758Z,24.10
2018-05-28T06:04:38.782Z,24.24
2018-05-28T06:05:38.829Z,24.60
2018-05-28T06:06:38.837Z,25.01
2018-05-28T06:07:38.856Z,25.16
2018-05-28T06:08:38.894Z,25.29
2018-05-28T06:09:38.920Z,25.38
2018-05-28T06:10:38.929Z,25.29
2018-05-28T06:11:38.952Z,25.43
2018-05-28T06:12:38.979Z,25.59
2018-05-28T06:13:39.024Z,25.51
2018-05-28T06:14:39.023Z,25.26
2018-05-28T06:15:39.049Z,24.57
2018-05-28T06:16:39.075Z,24.63
2018-05-28T06:17:39.110Z,24.55
2018-05-28T06:18:39.134Z,24.24
2018-05-28T06:19:39.149Z,23.95
2018-05-28T06:20:39.178Z,23.86
2018-05-28T06:21:39.196Z,23.86
2018-05-28T06:22:39.228Z,23.58
2018-05-28T06:23:39.256Z,23.58
2018-05-28T06:24:39.272Z,23.76
2018-05-28T06:25:39.315Z,23.88
2018-05-28T06:26:39.323Z,23.99
2018-05-28T06:27:39.340Z,24.24
2018-05-28T06:28:39.376Z,24.26
2018-05-28T06:29:39.391Z,24.42
2018-05-28T06:30:39.425Z,24.53
2018-05-28T06:31:39.440Z,25.11
2018-05-28T06:32:39.464Z,25.51
2018-05-28T06:33:39.484Z,25.75
2018-05-28T06:34:39.528Z,26.09
2018-05-28T06:35:39.547Z,26.44
2018-05-28T06:36:39.567Z,26.56
2018-05-28T06:37:39.589Z,26.60
2018-05-28T06:38:39.653Z,26.68
2018-05-28T06:39:39.716Z,26.75
2018-05-28T06:40:39.685Z,26.60
2018-05-28T06:41:39.722Z,26.70
2018-05-28T06:42:39.709Z,26.05
2018-05-28T06:43:39.739Z,25.75
2018-05-28T06:44:39.765Z,25.75
2018-05-28T06:45:39.789Z,25.96
2018-05-28T06:46:39.816Z,26.19
2018-05-28T06:47:39.832Z,26.40
2018-05-28T06:48:39.873Z,26.23
2018-05-28T06:49:39.927Z,26.18
2018-05-28T06:50:39.927Z,26.05
2018-05-28T06:51:39.932Z,26.29
2018-05-28T06:52:39.961Z,26.21
2018-05-28T06:53:39.984Z,26.28
2018-05-28T06:54:40.028Z,26.37
2018-05-28T06:55:40.042Z,26.13
2018-05-28T06:56:40.056Z,26.09
2018-05-28T06:57:40.077Z,25.40
2018-05-28T06:58:40.104Z,24.63
2018-05-28T06:59:40.134Z,24.61
2018-05-28T07:00:40.153Z,24.80
2018-05-28T07:01:40.200Z,24.81
2018-05-28T07:02:40.209Z,24.88
2018-05-28T07:03:40.237Z,25.33
2018-05-28T07:04:40.259Z,25.59
2018-05-28T07:05:40.289Z,25.40
2018-05-28T07:06:40.297Z,25.38
2018-05-28T07:07:40.324Z,24.93
2018-05-28T07:08:40.356Z,24.63
2018-05-28T07:09:40.373Z,24.50
2018-05-28T07:10:40.399Z,24.30
2018-05-28T07:11:40.436Z,24.14
2018-05-28T07:12:40.450Z,24.33
2018-05-28T07:13:40.474Z,24.13
2018-05-28T07:14:40.504Z,24.99
2018-05-28T07:15:40.568Z,25.03
2018-05-28T07:16:40.549Z,25.60
2018-05-28T07:17:40.579Z,25.29
2018-05-28T07:18:40.603Z,24.88
2018-05-28T07:19:40.624Z,24.73
2018-05-28T07:20:40.655Z,25.28
2018-05-28T07:21:40.664Z,25.80
2018-05-28T07:22:40.707Z,25.72
2018-05-28T07:23:40.715Z,25.77
2018-05-28T07:24:40.773Z,25.14
2018-05-28T07:25:40.773Z,25.03
2018-05-28T07:26:40.799Z,24.76
2018-05-28T07:27:40.854Z,24.86
2018-05-28T07:28:40.854Z,25.21
2018-05-28T07:29:40.891Z,25.28
2018-05-28T07:30:40.904Z,25.25
2018-05-28T07:31:40.913Z,25.26
2018-05-28T07:32:40.944Z,25.16
2018-05-28T07:33:40.955Z,25.14
2018-05-28T07:34:40.987Z,25.70
2018-05-28T07:35:41.030Z,26.21
2018-05-28T07:36:41.045Z,26.18
2018-05-28T07:37:41.066Z,25.98
2018-05-28T07:38:41.093Z,25.77
2018-05-28T07:39:41.119Z,26.06
2018-05-28T07:40:41.136Z,26.00
2018-05-28T07:41:41.174Z,26.55
2018-05-28T07:42:41.185Z,27.12
2018-05-28T07:43:41.225Z,27.25
2018-05-28T07:44:41.250Z,27.39
2018-05-28T07:45:41.258Z,27.70
2018-05-28T07:46:41.309Z,28.10
2018-05-28T07:47:41.336Z,28.25
2018-05-28T07:48:41.349Z,27.89
2018-05-28T07:49:41.368Z,27.07
2018-05-28T07:50:41.384Z,27.17
2018-05-28T07:51:41.415Z,27.78
2018-05-28T07:52:41.430Z,27.95
2018-05-28T07:53:41.458Z,28.41
2018-05-28T07:54:41.486Z,28.10
2018-05-28T07:55:41.522Z,27.33
2018-05-28T07:56:41.535Z,26.99
2018-05-28T07:57:41.562Z,26.71
2018-05-28T07:58:41.590Z,26.68
2018-05-28T07:59:41.606Z,26.83
2018-05-28T08:00:41.642Z,27.12
2018-05-28T08:01:41.694Z,27.11
2018-05-28T08:02:41.695Z,27.52
2018-05-28T08:03:41.714Z,27.86
2018-05-28T08:04:41.751Z,27.95
2018-05-28T08:05:41.769Z,28.81
2018-05-28T08:06:41.785Z,28.89
2018-05-28T08:07:41.830Z,29.27
2018-05-28T08:08:41.835Z,28.74
2018-05-28T08:09:41.870Z,28.26
2018-05-28T08:10:41.895Z,28.62
2018-05-28T08:11:41.925Z,28.62
2018-05-28T08:12:41.943Z,28.78
2018-05-28T08:13:41.968Z,28.72
2018-05-28T08:14:41.998Z,29.02
2018-05-28T08:15:42.021Z,29.12
2018-05-28T08:16:42.061Z,29.87
2018-05-28T08:17:42.083Z,29.65
2018-05-28T08:18:42.102Z,30.06
2018-05-28T08:19:42.159Z,29.88
2018-05-28T08:20:42.147Z,29.56
2018-05-28T08:21:42.177Z,29.78
2018-05-28T08:22:42.288Z,30.47
2018-05-28T08:23:42.231Z,30.44
2018-05-28T08:24:42.272Z,29.93
2018-05-28T08:25:42.290Z,30.37
2018-05-28T08:26:42.315Z,30.73
2018-05-28T08:27:42.335Z,31.54
2018-05-28T08:28:42.360Z,32.26
2018-05-28T08:29:42.418Z,33.59
2018-05-28T08:30:42.416Z,33.74
2018-05-28T08:31:42.438Z,33.68
2018-05-28T08:32:42.470Z,33.68
2018-05-28T08:33:42.500Z,33.69
2018-05-28T08:34:42.529Z,33.62
2018-05-28T08:35:42.546Z,33.42
2018-05-28T08:36:42.585Z,33.39
2018-05-28T08:37:42.628Z,32.85
2018-05-28T08:38:42.623Z,32.90
2018-05-28T08:39:42.656Z,32.18
2018-05-28T08:40:42.679Z,31.18
2018-05-28T08:41:42.716Z,30.47
2018-05-28T08:42:42.737Z,30.63
2018-05-28T08:43:42.782Z,30.92
2018-05-28T08:44:42.790Z,30.63
2018-05-28T08:45:42.811Z,29.88
2018-05-28T08:46:42.839Z,29.29
2018-05-28T08:47:42.885Z,29.39
2018-05-28T08:48:42.900Z,29.24
2018-05-28T08:49:42.915Z,29.23
2018-05-28T08:50:43.022Z,29.05
2018-05-28T08:51:42.992Z,28.88
2018-05-28T08:52:43.016Z,29.05
2018-05-28T08:53:43.052Z,29.54
2018-05-28T08:54:43.045Z,30.13
2018-05-28T08:55:43.083Z,30.09
2018-05-28T08:56:43.110Z,30.66
2018-05-28T08:57:43.120Z,30.91
2018-05-28T08:58:43.171Z,31.05
2018-05-28T08:59:43.176Z,30.63
2018-05-28T09:00:43.212Z,30.43
2018-05-28T09:01:43.227Z,30.21
2018-05-28T09:02:43.292Z,30.08
2018-05-28T09:03:43.295Z,30.23
2018-05-28T09:04:43.327Z,29.53
2018-05-28T09:05:43.339Z,29.78
2018-05-28T09:06:43.358Z,29.61
2018-05-28T09:07:43.387Z,29.90
2018-05-28T09:08:43.423Z,30.08
2018-05-28T09:09:43.448Z,30.84
2018-05-28T09:10:43.470Z,30.87
2018-05-28T09:11:43.489Z,30.46
2018-05-28T09:12:43.513Z,30.85
2018-05-28T09:13:43.546Z,31.20
2018-05-28T09:14:43.596Z,31.28
2018-05-28T09:15:43.625Z,31.43
2018-05-28T09:16:43.621Z,31.28
2018-05-28T09:17:43.646Z,31.06
2018-05-28T09:18:43.700Z,31.27
2018-05-28T09:19:43.705Z,31.73
2018-05-28T09:20:43.723Z,31.74
2018-05-28T09:21:43.758Z,31.47
2018-05-28T09:22:43.776Z,31.69
2018-05-28T09:23:43.824Z,31.65
2018-05-28T09:24:43.852Z,31.09
2018-05-28T09:25:43.853Z,30.53
2018-05-28T09:26:43.911Z,30.94
2018-05-28T09:27:43.907Z,30.85
2018-05-28T09:28:43.937Z,30.90
2018-05-28T09:29:43.980Z,30.75
2018-05-28T09:30:43.989Z,30.77
2018-05-28T09:31:44.012Z,30.94
2018-05-28T09:32:44.036Z,31.03
2018-05-28T09:33:44.064Z,31.61
2018-05-28T09:34:44.100Z,31.47
2018-05-28T09:35:44.114Z,31.14
2018-05-28T09:36:44.146Z,31.56
2018-05-28T09:37:44.169Z,31.92
2018-05-28T09:38:44.196Z,31.78
2018-05-28T09:39:44.282Z,31.29
2018-05-28T09:40:44.259Z,31.31
2018-05-28T09:41:44.283Z,31.39
2018-05-28T09:42:44.297Z,31.74
2018-05-28T09:43:44.333Z,31.36
2018-05-28T09:44:44.360Z,31.65
2018-05-28T09:45:44.396Z,31.59
2018-05-28T09:46:44.413Z,31.93
2018-05-28T09:47:44.430Z,32.36
2018-05-28T09:48:44.489Z,32.59
2018-05-28T09:49:44.492Z,32.48
2018-05-28T09:50:44.524Z,32.68
2018-05-28T09:51:44.543Z,32.41
2018-05-28T09:52:44.560Z,32.48
2018-05-28T09:53:44.595Z,32.12
2018-05-28T09:54:44.650Z,32.34
2018-05-28T09:55:44.644Z,32.71
2018-05-28T09:56:44.668Z,32.26
2018-05-28T09:57:44.698Z,31.78
2018-05-28T09:58:44.725Z,31.33
2018-05-28T09:59:44.763Z,31.62
2018-05-28T10:00:44.792Z,32.03
2018-05-28T10:01:44.820Z,32.45
2018-05-28T10:02:44.830Z,33.02
2018-05-28T10:03:44.855Z,32.96
2018-05-28T10:04:44.887Z,32.78
2018-05-28T10:05:44.900Z,32.04
2018-05-28T10:06:44.935Z,31.58
2018-05-28T10:07:44.971Z,31.49
2018-05-28T10:08:44.989Z,31.29
2018-05-28T10:09:45.013Z,31.40
2018-05-28T10:10:45.050Z,31.59
2018-05-28T10:11:45.069Z,31.56
2018-05-28T10:12:45.092Z,32.04
2018-05-28T10:13:45.117Z,31.65
2018-05-28T10:14:45.147Z,31.81
2018-05-28T10:15:45.183Z,32.40
2018-05-28T10:16:45.203Z,32.46
2018-05-28T10:17:45.219Z,32.53
2018-05-28T10:18:45.253Z,32.04
2018-05-28T10:19:45.301Z,32.29
2018-05-28T10:20:45.308Z,32.15
2018-05-28T10:21:45.346Z,31.62
2018-05-28T10:22:45.404Z,31.55
2018-05-28T10:23:45.389Z,31.22
2018-05-28T10:24:45.421Z,31.17
2018-05-28T10:25:45.476Z,31.43
2018-05-28T10:26:45.480Z,31.56
2018-05-28T10:27:45.490Z,31.97
2018-05-28T10:28:45.518Z,31.93
2018-05-28T10:29:45.541Z,31.93
2018-05-28T10:30:45.570Z,32.11
2018-05-28T10:31:45.593Z,32.09
2018-05-28T10:32:45.616Z,32.51
2018-05-28T10:33:45.643Z,32.93
2018-05-28T10:34:45.673Z,32.93
2018-05-28T10:35:45.703Z,32.59
2018-05-28T10:36:45.752Z,32.29
2018-05-28T10:37:45.755Z,32.11
2018-05-28T10:38:45.775Z,31.93
2018-05-28T10:39:45.814Z,32.12
2018-05-28T10:40:45.860Z,32.04
2018-05-28T10:41:45.864Z,32.18
2018-05-28T10:42:45.887Z,32.21
2018-05-28T10:43:45.916Z,32.09
2018-05-28T10:44:45.956Z,32.04
2018-05-28T10:45:45.961Z,32.09
2018-05-28T10:46:45.993Z,32.16
2018-05-28T10:47:46.026Z,31.97
2018-05-28T10:48:46.048Z,32.04
2018-05-28T10:49:46.091Z,31.74
2018-05-28T10:50:46.100Z,31.74
2018-05-28T10:51:46.132Z,32.11
2018-05-28T10:52:46.152Z,32.14
2018-05-28T10:53:46.182Z,32.23
2018-05-28T10:54:46.205Z,32.11
2018-05-28T10:55:46.257Z,32.19
2018-05-28T10:56:46.266Z,32.08
2018-05-28T10:57:46.296Z,31.90
2018-05-28T10:58:46.370Z,32.09
2018-05-28T10:59:46.352Z,32.19
2018-05-28T11:00:46.367Z,32.16
2018-05-28T11:01:46.384Z,32.12
2018-05-28T11:02:46.413Z,32.11
2018-05-28T11:03:46.451Z,31.66
2018-05-28T11:04:46.472Z,32.21
2018-05-28T11:05:46.495Z,32.86
2018-05-28T11:06:46.528Z,32.74
2018-05-28T11:07:46.551Z,32.93
2018-05-28T11:08:46.570Z,32.49
2018-05-28T11:09:46.607Z,32.55
2018-05-28T11:10:46.628Z,32.30
2018-05-28T11:11:46.714Z,32.49
2018-05-28T11:12:46.675Z,32.68
2018-05-28T11:13:46.702Z,32.93
2018-05-28T11:14:46.739Z,33.22
2018-05-28T11:15:46.764Z,33.09
2018-05-28T11:16:46.788Z,33.39
2018-05-28T11:17:46.822Z,32.95
2018-05-28T11:18:46.860Z,32.92
2018-05-28T11:19:46.867Z,32.64
2018-05-28T11:20:46.896Z,33.00
2018-05-28T11:21:46.924Z,32.89
2018-05-28T11:22:46.954Z,33.15
2018-05-28T11:23:46.993Z,32.92
2018-05-28T11:24:46.993Z,32.87
2018-05-28T11:25:47.102Z,32.48
2018-05-28T11:26:47.060Z,32.30
2018-05-28T11:27:47.079Z,32.11
2018-05-28T11:28:47.102Z,32.74
2018-05-28T11:29:47.127Z,32.52
2018-05-28T11:30:47.158Z,32.56
2018-05-28T11:31:47.221Z,32.27
2018-05-28T11:32:47.218Z,32.15
2018-05-28T11:33:47.255Z,32.53
2018-05-28T11:34:47.268Z,32.18
2018-05-28T11:35:47.290Z,32.18
2018-05-28T11:36:47.324Z,31.96
2018-05-28T11:37:47.360Z,32.18
2018-05-28T11:38:47.387Z,32.46
2018-05-28T11:39:47.410Z,32.63
2018-05-28T11:40:47.428Z,32.83
2018-05-28T11:41:47.466Z,32.86
2018-05-28T11:42:47.482Z,32.89
2018-05-28T11:43:47.507Z,32.97
2018-05-28T11:44:47.556Z,33.09
2018-05-28T11:45:47.559Z,33.05
2018-05-28T11:46:47.600Z,33.02
2018-05-28T11:47:47.604Z,32.90
2018-05-28T11:48:47.628Z,33.00
2018-05-28T11:49:47.675Z,33.05
2018-05-28T11:50:47.690Z,33.28
2018-05-28T11:51:47.726Z,33.55
2018-05-28T11:52:47.750Z,33.19
2018-05-28T11:53:47.761Z,32.96
2018-05-28T11:54:47.789Z,32.96
2018-05-28T11:55:47.827Z,33.04
2018-05-28T11:56:47.844Z,33.34
2018-05-28T11:57:47.871Z,33.36
2018-05-28T11:58:47.902Z,33.40
2018-05-28T11:59:47.927Z,33.76
2018-05-28T12:00:47.951Z,33.22
2018-05-28T12:01:47.985Z,32.63
2018-05-28T12:02:48.005Z,33.01
2018-05-28T12:03:48.035Z,33.01
2018-05-28T12:04:48.072Z,33.42
2018-05-28T12:05:48.083Z,33.17
2018-05-28T12:06:48.111Z,33.45
2018-05-28T12:07:48.178Z,33.55
2018-05-28T12:08:48.166Z,33.57
2018-05-28T12:09:48.236Z,33.39
2018-05-28T12:10:48.243Z,33.47
2018-05-28T12:11:48.243Z,33.27
2018-05-28T12:12:48.269Z,33.34
2018-05-28T12:13:48.307Z,33.89
2018-05-28T12:14:48.323Z,34.21
2018-05-28T12:15:48.349Z,34.47
2018-05-28T12:16:48.388Z,34.20
2018-05-28T12:17:48.404Z,33.95
2018-05-28T12:18:48.465Z,33.94
2018-05-28T12:19:48.464Z,34.17
2018-05-28T12:20:48.487Z,33.95
2018-05-28T12:21:48.517Z,33.79
2018-05-28T12:22:48.546Z,33.89
2018-05-28T12:23:48.576Z,34.40
2018-05-28T12:24:48.595Z,34.77
2018-05-28T12:25:48.629Z,34.93
2018-05-28T12:26:48.653Z,35.15
2018-05-28T12:27:48.689Z,34.60
2018-05-28T12:28:48.704Z,34.38
2018-05-28T12:29:48.740Z,34.23
2018-05-28T12:30:48.767Z,34.42
2018-05-28T12:31:48.813Z,34.36
2018-05-28T12:32:48.816Z,34.75
2018-05-28T12:33:48.855Z,34.85
2018-05-28T12:34:48.898Z,34.14
2018-05-28T12:35:48.896Z,34.42
2018-05-28T12:36:48.922Z,34.61
2018-05-28T12:37:48.951Z,34.96
2018-05-28T12:38:48.986Z,34.58
2018-05-28T12:39:49.064Z,34.48
2018-05-28T12:40:49.044Z,34.16
2018-05-28T12:41:49.064Z,34.05
2018-05-28T12:42:49.092Z,33.99
2018-05-28T12:43:49.118Z,34.50
2018-05-28T12:44:49.142Z,34.85
2018-05-28T12:45:49.191Z,35.14
2018-05-28T12:46:49.200Z,34.73
2018-05-28T12:47:49.233Z,33.98
2018-05-28T12:48:49.280Z,33.61
2018-05-28T12:49:49.306Z,33.69
2018-05-28T12:50:49.303Z,34.13
2018-05-28T12:51:49.335Z,34.24
2018-05-28T12:52:49.368Z,34.35